createdAt,value
2022-11-23T00:01:37.410Z,97479.66
2022-11-23T00:04:08.041Z,97472.97
2022-11-23T00:06:36.381Z,97478.09
2022-11-23T00:09:04.713Z,97472.19
2022-11-23T00:11:35.514Z,97481.41
2022-11-23T00:14:04.040Z,97485.59
2022-11-23T00:16:32.675Z,97484.94
2022-11-23T00:19:02.036Z,97479.66
2022-11-23T00:21:32.199Z,97489.56
2022-11-23T00:24:00.569Z,97480.97
2022-11-23T00:26:28.486Z,97480.31
2022-11-23T00:28:56.404Z,97481.59
2022-11-23T00:31:28.166Z,97478.25
2022-11-23T00:33:57.596Z,97481.13
2022-11-23T00:36:26.841Z,97478.75
2022-11-23T00:38:55.101Z,97484.00
2022-11-23T00:41:26.375Z,97491.03
2022-11-23T00:43:54.926Z,97486.72
2022-11-23T00:46:31.736Z,97489.94
2022-11-23T00:49:00.529Z,97497.59
2022-11-23T00:51:32.540Z,97484.97
2022-11-23T00:54:01.914Z,97497.75
2022-11-23T00:56:30.697Z,97489.75
2022-11-23T00:59:01.006Z,97495.84
2022-11-23T01:01:33.971Z,97500.75
2022-11-23T01:12:22.671Z,97502.22
2022-11-23T01:14:54.107Z,97484.00
2022-11-23T01:17:23.181Z,97492.41
2022-11-23T01:19:53.104Z,97491.03
2022-11-23T01:22:21.258Z,97499.16
2022-11-23T01:24:50.970Z,97498.22
2022-11-23T01:27:18.868Z,97493.41
2022-11-23T01:29:46.832Z,97502.50
2022-11-23T01:32:14.743Z,97506.03
2022-11-23T01:34:43.021Z,97511.94
2022-11-23T01:37:10.986Z,97507.78
2022-11-23T01:39:39.007Z,97506.03
2022-11-23T01:42:08.654Z,97504.13
2022-11-23T01:44:39.654Z,97504.75
2022-11-23T01:47:09.228Z,97499.78
2022-11-23T01:49:46.021Z,97502.50
2022-11-23T01:52:25.030Z,97502.19
2022-11-23T01:54:56.380Z,97504.41
2022-11-23T01:57:39.431Z,97503.59
2022-11-23T02:00:10.141Z,97510.19
2022-11-23T02:02:53.800Z,97501.41
2022-11-23T02:05:27.850Z,97508.75
2022-11-23T02:07:55.866Z,97506.38
2022-11-23T02:10:24.346Z,97512.59
2022-11-23T02:12:53.788Z,97510.66
2022-11-23T02:15:21.685Z,97509.22
2022-11-23T02:17:51.946Z,97503.44
2022-11-23T02:20:20.850Z,97504.25
2022-11-23T02:23:06.241Z,97510.97
2022-11-23T02:25:46.058Z,97507.31
2022-11-23T02:28:25.561Z,97506.97
2022-11-23T02:30:55.573Z,97505.88
2022-11-23T02:33:25.550Z,97502.66
2022-11-23T02:35:56.696Z,97502.34
2022-11-23T02:38:31.653Z,97498.50
2022-11-23T02:41:01.277Z,97507.44
2022-11-23T02:43:30.034Z,97497.41
2022-11-23T02:46:00.227Z,97504.75
2022-11-23T02:48:29.011Z,97505.22
2022-11-23T02:50:56.889Z,97512.91
2022-11-23T02:53:25.457Z,97518.84
2022-11-23T02:55:55.421Z,97512.41
2022-11-23T02:58:25.223Z,97513.56
2022-11-23T03:00:53.307Z,97510.03
2022-11-23T03:03:21.203Z,97512.41
2022-11-23T03:05:49.217Z,97507.31
2022-11-23T03:08:18.041Z,97510.34
2022-11-23T03:10:46.069Z,97515.63
2022-11-23T03:13:14.300Z,97505.25
2022-11-23T03:15:42.354Z,97505.09
2022-11-23T03:18:11.260Z,97506.84
2022-11-23T03:20:40.364Z,97503.78
2022-11-23T03:23:08.617Z,97507.31
2022-11-23T03:25:36.542Z,97512.13
2022-11-23T03:28:06.226Z,97514.66
2022-11-23T03:30:34.540Z,97520.25
2022-11-23T03:33:05.091Z,97515.47
2022-11-23T03:35:33.254Z,97514.84
2022-11-23T03:38:16.596Z,97520.88
2022-11-23T03:40:47.154Z,97524.41
2022-11-23T03:43:24.749Z,97514.84
2022-11-23T03:45:53.334Z,97516.13
2022-11-23T03:48:21.259Z,97518.19
2022-11-23T03:50:50.109Z,97521.50
2022-11-23T03:53:17.981Z,97523.78
2022-11-23T03:55:47.325Z,97529.50
2022-11-23T03:58:15.764Z,97521.69
2022-11-23T04:00:43.792Z,97521.69
2022-11-23T04:03:14.453Z,97534.31
2022-11-23T04:06:14.673Z,97523.59
2022-11-23T04:08:51.614Z,97520.75
2022-11-23T04:11:31.038Z,97520.91
2022-11-23T04:13:59.021Z,97527.41
2022-11-23T04:16:26.902Z,97525.38
2022-11-23T04:18:55.070Z,97527.59
2022-11-23T04:21:23.753Z,97529.19
2022-11-23T04:23:52.022Z,97525.84
2022-11-23T04:26:20.683Z,97528.41
2022-11-23T04:28:49.200Z,97523.94
2022-11-23T04:31:17.340Z,97523.94
2022-11-23T04:33:55.688Z,97522.34
2022-11-23T04:36:25.061Z,97523.78
2022-11-23T04:38:53.763Z,97527.47
2022-11-23T04:41:27.852Z,97534.31
2022-11-23T04:43:56.513Z,97530.81
2022-11-23T04:46:25.392Z,97530.97
2022-11-23T04:48:53.387Z,97530.66
2022-11-23T04:51:21.944Z,97534.00
2022-11-23T04:53:49.844Z,97528.09
2022-11-23T04:56:18.023Z,97536.84
2022-11-23T04:58:45.871Z,97544.84
2022-11-23T05:01:14.063Z,97537.50
2022-11-23T05:04:02.157Z,97541.84
2022-11-23T05:06:30.270Z,97534.00
2022-11-23T05:08:59.944Z,97540.38
2022-11-23T05:11:47.513Z,97535.91
2022-11-23T05:14:15.486Z,97543.28
2022-11-23T05:16:43.869Z,97539.28
2022-11-23T05:19:12.135Z,97532.88
2022-11-23T05:21:40.608Z,97536.72
2022-11-23T05:24:08.571Z,97534.66
2022-11-23T05:26:41.119Z,97528.41
2022-11-23T05:29:09.085Z,97533.03
2022-11-23T05:31:37.228Z,97535.13
2022-11-23T05:34:05.525Z,97541.97
2022-11-23T05:36:45.044Z,97544.06
2022-11-23T05:39:13.878Z,97545.81
2022-11-23T05:41:41.916Z,97545.50
2022-11-23T05:44:23.548Z,97538.75
2022-11-23T05:46:52.044Z,97545.50
2022-11-23T05:49:22.346Z,97549.19
2022-11-23T05:51:50.470Z,97543.28
2022-11-23T05:54:19.305Z,97548.38
2022-11-23T05:56:57.807Z,97550.78
2022-11-23T05:59:35.932Z,97542.78
2022-11-23T06:02:05.108Z,97539.75
2022-11-23T06:04:36.374Z,97544.38
2022-11-23T06:07:07.136Z,97545.50
2022-11-23T06:09:55.098Z,97549.97
2022-11-23T06:12:23.318Z,97545.66
2022-11-23T06:14:51.383Z,97550.94
2022-11-23T06:17:23.704Z,97543.59
2022-11-23T06:19:51.893Z,97547.59
2022-11-23T06:22:20.044Z,97556.69
2022-11-23T06:24:57.553Z,97552.69
2022-11-23T06:27:55.095Z,97553.31
2022-11-23T06:30:27.853Z,97561.31
2022-11-23T06:33:03.740Z,97559.09
2022-11-23T06:35:34.455Z,97564.34
2022-11-23T06:38:02.628Z,97555.91
2022-11-23T06:40:30.793Z,97562.28
2022-11-23T06:43:00.425Z,97566.47
2022-11-23T06:45:45.022Z,97572.66
2022-11-23T06:48:16.281Z,97570.59
2022-11-23T06:50:47.677Z,97563.56
2022-11-23T06:53:17.161Z,97573.13
2022-11-23T06:55:52.311Z,97569.47
2022-11-23T06:58:21.797Z,97566.75
2022-11-23T07:00:49.748Z,97577.81
2022-11-23T07:03:24.050Z,97572.03
2022-11-23T07:06:08.333Z,97569.00
2022-11-23T07:08:43.504Z,97570.91
2022-11-23T07:11:24.026Z,97567.06
2022-11-23T07:13:52.023Z,97575.22
2022-11-23T07:16:20.147Z,97575.53
2022-11-23T07:18:50.814Z,97572.81
2022-11-23T07:21:18.729Z,97579.06
2022-11-23T07:23:47.558Z,97575.22
2022-11-23T07:26:16.156Z,97584.00
2022-11-23T07:28:44.023Z,97583.22
2022-11-23T07:31:12.614Z,97585.94
2022-11-23T07:33:44.293Z,97584.78
2022-11-23T07:36:13.309Z,97581.25
2022-11-23T07:38:43.204Z,97586.22
2022-11-23T07:41:13.164Z,97587.97
2022-11-23T07:43:52.093Z,97581.94
2022-11-23T07:46:20.592Z,97582.56
2022-11-23T07:48:48.461Z,97585.56
2022-11-23T07:51:19.515Z,97588.00
2022-11-23T07:53:47.643Z,97579.34
2022-11-23T07:56:15.489Z,97571.50
2022-11-23T07:58:43.500Z,97575.47
2022-11-23T08:01:15.443Z,97567.59
2022-11-23T08:03:43.808Z,97582.97
2022-11-23T08:06:12.200Z,97578.59
2022-11-23T08:08:40.229Z,97578.66
2022-11-23T08:11:09.820Z,97575.00
2022-11-23T08:13:37.693Z,97580.53
2022-11-23T08:16:05.879Z,97581.47
2022-11-23T08:18:33.803Z,97574.47
2022-11-23T08:21:03.060Z,97575.72
2022-11-23T08:23:31.832Z,97584.06
2022-11-23T08:26:03.192Z,97569.50
2022-11-23T08:28:31.077Z,97565.81
2022-11-23T08:30:59.199Z,97564.56
2022-11-23T08:33:28.195Z,97571.38
2022-11-23T08:35:56.070Z,97565.72
2022-11-23T08:38:26.400Z,97560.50
2022-11-23T08:40:59.444Z,97561.72
2022-11-23T08:43:28.657Z,97562.81
2022-11-23T08:46:05.613Z,97558.66
2022-11-23T08:48:36.047Z,97555.25
2022-11-23T08:51:04.200Z,97561.94
2022-11-23T08:53:33.088Z,97561.97
2022-11-23T08:56:02.029Z,97561.59
2022-11-23T08:58:29.911Z,97564.22
2022-11-23T09:00:58.986Z,97560.50
2022-11-23T09:03:26.884Z,97562.16
2022-11-23T09:05:59.668Z,97569.56
2022-11-23T09:08:28.659Z,97563.66
2022-11-23T09:11:14.862Z,97571.41
2022-11-23T09:13:43.220Z,97580.34
2022-11-23T09:16:11.090Z,97579.19
2022-11-23T09:18:40.067Z,97581.41
2022-11-23T09:21:08.027Z,97571.28
2022-11-23T09:23:36.346Z,97570.88
2022-11-23T09:26:05.541Z,97568.03
2022-11-23T09:28:33.878Z,97565.03
2022-11-23T09:31:04.429Z,97567.25
2022-11-23T09:33:32.413Z,97571.50
2022-11-23T09:36:02.032Z,97565.97
2022-11-23T09:38:55.223Z,97572.81
2022-11-23T09:41:37.236Z,97564.56
2022-11-23T09:44:11.401Z,97570.72
2022-11-23T09:47:04.456Z,97565.03
2022-11-23T09:50:07.709Z,97564.91
2022-11-23T09:52:43.053Z,97569.63
2022-11-23T09:55:19.312Z,97560.22
2022-11-23T09:57:50.196Z,97572.22
2022-11-23T10:00:20.066Z,97574.97
2022-11-23T10:02:49.312Z,97576.72
2022-11-23T10:05:31.550Z,97578.31
2022-11-23T10:07:59.468Z,97577.78
2022-11-23T10:10:41.807Z,97581.53
2022-11-23T10:13:31.479Z,97580.03
2022-11-23T10:16:05.357Z,97582.41
2022-11-23T10:18:38.972Z,97577.22
2022-11-23T10:21:34.618Z,97574.47
2022-11-23T10:24:03.117Z,97577.88
2022-11-23T10:26:39.232Z,97572.06
2022-11-23T10:29:34.872Z,97568.81
2022-11-23T10:32:05.884Z,97565.84
2022-11-23T10:34:42.966Z,97566.47
2022-11-23T10:37:16.440Z,97563.88
2022-11-23T10:39:44.771Z,97571.22
2022-11-23T10:42:36.680Z,97563.13
2022-11-23T10:45:05.797Z,97565.91
2022-11-23T10:47:52.084Z,97569.72
2022-11-23T10:50:37.705Z,97567.09
2022-11-23T10:53:05.722Z,97558.09
2022-11-23T10:55:54.929Z,97558.75
2022-11-23T10:58:35.138Z,97548.66
2022-11-23T11:01:06.526Z,97550.53
2022-11-23T11:03:35.335Z,97552.63
2022-11-23T11:06:09.555Z,97547.47
2022-11-23T11:08:52.825Z,97546.91
2022-11-23T11:11:27.681Z,97546.91
2022-11-23T11:14:04.915Z,97553.38
2022-11-23T11:16:36.754Z,97543.25
2022-11-23T11:19:22.985Z,97542.41
2022-11-23T11:21:52.972Z,97543.06
2022-11-23T11:24:28.774Z,97547.09
2022-11-23T11:27:06.075Z,97538.16
2022-11-23T11:29:48.854Z,97543.03
2022-11-23T11:32:34.712Z,97542.16
2022-11-23T11:35:08.749Z,97547.59
2022-11-23T11:37:41.174Z,97533.47
2022-11-23T11:40:32.721Z,97533.84
2022-11-23T11:43:19.632Z,97546.53
2022-11-23T11:46:27.472Z,97535.41
2022-11-23T11:48:48.224Z,97536.97
2022-11-23T11:51:35.081Z,97527.59
2022-11-23T11:54:15.590Z,97536.66
2022-11-23T11:57:06.189Z,97527.97
2022-11-23T11:59:43.692Z,97539.34
2022-11-23T12:02:31.215Z,97532.53
2022-11-23T12:05:22.304Z,97525.28
2022-11-23T12:08:13.571Z,97527.69
2022-11-23T12:10:50.490Z,97534.06
2022-11-23T12:13:24.886Z,97540.38
2022-11-23T12:16:20.683Z,97534.97
2022-11-23T12:19:10.469Z,97540.59
2022-11-23T12:22:16.203Z,97537.44
2022-11-23T12:25:05.382Z,97536.69
2022-11-23T12:27:44.998Z,97537.25
2022-11-23T12:30:26.831Z,97527.47
2022-11-23T12:33:01.114Z,97525.53
2022-11-23T12:35:50.857Z,97531.41
2022-11-23T12:38:24.573Z,97526.78
2022-11-23T12:41:24.690Z,97525.19
2022-11-23T12:44:02.981Z,97521.31
2022-11-23T12:46:30.786Z,97527.94
2022-11-23T12:49:39.198Z,97526.06
2022-11-23T12:52:40.565Z,97525.72
2022-11-23T12:55:25.550Z,97527.41
2022-11-23T12:58:02.376Z,97523.81
2022-11-23T13:00:37.597Z,97519.97
2022-11-23T13:03:25.854Z,97520.03
2022-11-23T13:06:12.054Z,97515.06
2022-11-23T13:08:51.840Z,97522.78
2022-11-23T13:11:44.702Z,97524.00
2022-11-23T13:14:12.558Z,97514.47
2022-11-23T13:16:54.304Z,97510.13
2022-11-23T13:19:33.513Z,97515.81
2022-11-23T13:22:05.636Z,97519.81
2022-11-23T13:24:36.173Z,97522.88
2022-11-23T13:27:13.583Z,97517.91
2022-11-23T13:30:07.685Z,97517.34
2022-11-23T13:32:38.666Z,97525.13
2022-11-23T13:35:18.766Z,97521.31
2022-11-23T13:37:55.961Z,97521.09
2022-11-23T13:40:27.703Z,97522.34
2022-11-23T13:43:19.750Z,97527.94
2022-11-23T13:46:29.079Z,97529.25
2022-11-23T13:49:01.914Z,97533.38
2022-11-23T13:51:35.640Z,97525.97
2022-11-23T13:54:20.600Z,97517.00
2022-11-23T13:57:01.837Z,97516.06
2022-11-23T13:59:34.773Z,97508.44
2022-11-23T14:02:12.564Z,97511.06
2022-11-23T14:04:47.050Z,97512.22
2022-11-23T14:07:43.284Z,97513.03
2022-11-23T14:10:22.458Z,97517.91
2022-11-23T14:12:57.414Z,97508.69
2022-11-23T14:15:32.539Z,97514.59
2022-11-23T14:18:21.801Z,97511.06
2022-11-23T14:21:07.455Z,97517.34
2022-11-23T14:24:15.711Z,97516.97
2022-11-23T14:27:39.107Z,97527.44
2022-11-23T14:30:14.769Z,97530.75
2022-11-23T14:33:17.557Z,97532.16
2022-11-23T14:36:17.625Z,97537.38
2022-11-23T14:39:04.157Z,97531.56
2022-11-23T14:41:37.192Z,97534.25
2022-11-23T14:44:05.877Z,97531.38
2022-11-23T14:46:33.879Z,97528.88
2022-11-23T14:49:07.557Z,97530.22
2022-11-23T14:51:41.954Z,97533.91
2022-11-23T14:54:11.739Z,97536.66
2022-11-23T14:56:45.404Z,97532.13
2022-11-23T14:59:14.415Z,97528.50
2022-11-23T15:01:50.112Z,97535.78
2022-11-23T15:04:34.734Z,97537.31
2022-11-23T15:07:02.967Z,97541.19
2022-11-23T15:09:36.705Z,97536.84
2022-11-23T15:12:21.781Z,97545.03
2022-11-23T15:14:50.994Z,97551.34
2022-11-23T15:17:21.018Z,97556.34
2022-11-23T15:20:03.118Z,97566.66
2022-11-23T15:22:33.744Z,97549.81
2022-11-23T15:25:09.454Z,97559.34
2022-11-23T15:27:40.829Z,97548.31
2022-11-23T15:30:16.422Z,97551.25
2022-11-23T15:32:45.064Z,97547.59
2022-11-23T15:35:15.511Z,97541.69
2022-11-23T15:37:48.861Z,97552.25
2022-11-23T15:40:19.145Z,97545.25
2022-11-23T15:42:50.039Z,97549.88
2022-11-23T15:45:46.132Z,97543.34
2022-11-23T15:48:29.061Z,97537.59
2022-11-23T15:51:02.891Z,97544.19
2022-11-23T15:53:32.140Z,97541.94
2022-11-23T15:56:06.444Z,97544.78
2022-11-23T15:58:35.338Z,97544.31
2022-11-23T16:01:14.281Z,97546.97
2022-11-23T16:03:52.473Z,97543.56
2022-11-23T16:06:25.972Z,97544.78
2022-11-23T16:08:54.890Z,97546.00
2022-11-23T16:11:30.208Z,97546.31
2022-11-23T16:14:19.645Z,97546.13
2022-11-23T16:16:59.809Z,97544.50
2022-11-23T16:19:30.691Z,97545.25
2022-11-23T16:22:07.892Z,97536.13
2022-11-23T16:24:36.696Z,97549.03
2022-11-23T16:27:16.178Z,97553.88
2022-11-23T16:29:50.576Z,97556.13
2022-11-23T16:32:28.220Z,97552.69
2022-11-23T16:34:59.276Z,97551.69
2022-11-23T16:37:29.102Z,97551.91
2022-11-23T16:39:57.049Z,97550.63
2022-11-23T16:42:27.154Z,97549.22
2022-11-23T16:44:55.163Z,97554.28
2022-11-23T16:47:26.855Z,97550.09
2022-11-23T16:49:56.119Z,97553.00
2022-11-23T16:52:24.884Z,97550.72
2022-11-23T16:54:54.471Z,97548.75
2022-11-23T16:57:29.252Z,97559.88
2022-11-23T17:00:03.302Z,97556.09
2022-11-23T17:02:31.452Z,97556.34
2022-11-23T17:05:01.271Z,97565.50
2022-11-23T17:07:29.294Z,97562.50
2022-11-23T17:09:59.202Z,97550.41
2022-11-23T17:12:27.341Z,97554.41
2022-11-23T17:14:56.171Z,97563.59
2022-11-23T17:17:24.071Z,97558.50
2022-11-23T17:19:52.465Z,97554.72
2022-11-23T17:22:20.477Z,97561.13
2022-11-23T17:24:49.862Z,97562.03
2022-11-23T17:27:22.468Z,97563.06
2022-11-23T17:29:57.482Z,97570.38
2022-11-23T17:32:26.639Z,97575.75
2022-11-23T17:34:54.740Z,97579.88
2022-11-23T17:37:24.463Z,97583.84
2022-11-23T17:39:52.380Z,97592.34
2022-11-23T17:42:20.844Z,97588.16
2022-11-23T17:44:48.773Z,97581.81
2022-11-23T17:47:31.144Z,97589.06
2022-11-23T17:49:59.494Z,97593.22
2022-11-23T17:52:28.392Z,97595.44
2022-11-23T17:55:04.382Z,97594.63
2022-11-23T17:57:36.533Z,97605.06
2022-11-23T18:00:11.333Z,97591.88
2022-11-23T18:02:42.340Z,97606.53
2022-11-23T18:05:15.240Z,97606.16
2022-11-23T18:07:50.702Z,97601.63
2022-11-23T18:10:19.675Z,97605.06
2022-11-23T18:12:50.707Z,97601.94
2022-11-23T18:15:18.679Z,97602.06
2022-11-23T18:17:47.965Z,97598.38
2022-11-23T18:20:19.169Z,97603.47
2022-11-23T18:22:49.867Z,97600.47
2022-11-23T18:25:18.262Z,97596.66
2022-11-23T18:27:46.450Z,97593.97
2022-11-23T18:30:24.007Z,97597.78
2022-11-23T18:32:55.851Z,97600.22
2022-11-23T18:35:24.724Z,97591.75
2022-11-23T18:37:55.147Z,97585.81
2022-11-23T18:40:23.752Z,97600.09
2022-11-23T18:42:51.680Z,97595.16
2022-11-23T18:45:19.646Z,97597.66
2022-11-23T18:47:47.602Z,97591.25
2022-11-23T18:50:15.655Z,97593.50
2022-11-23T18:52:43.669Z,97593.50
2022-11-23T18:55:11.789Z,97592.09
2022-11-23T18:57:40.217Z,97592.13
2022-11-23T19:00:11.120Z,97595.47
2022-11-23T19:02:39.371Z,97602.16
2022-11-23T19:05:08.193Z,97602.97
2022-11-23T19:07:36.204Z,97595.31
2022-11-23T19:10:04.375Z,97590.66
2022-11-23T19:12:32.407Z,97603.91
2022-11-23T19:15:00.303Z,97600.88
2022-11-23T19:17:29.003Z,97596.41
2022-11-23T19:19:57.091Z,97600.56
2022-11-23T19:22:25.095Z,97608.06
2022-11-23T19:24:53.145Z,97611.91
2022-11-23T19:27:21.200Z,97616.25
2022-11-23T19:29:49.158Z,97609.19
2022-11-23T19:32:16.968Z,97614.13
2022-11-23T19:34:47.052Z,97622.78
2022-11-23T19:37:15.882Z,97619.94
2022-11-23T19:39:43.974Z,97636.22
2022-11-23T19:42:11.917Z,97626.47
2022-11-23T19:44:39.877Z,97628.22
2022-11-23T19:47:14.503Z,97629.34
2022-11-23T19:49:45.722Z,97626.16
2022-11-23T19:52:14.064Z,97630.81
2022-11-23T19:54:41.905Z,97629.19
2022-11-23T19:57:10.290Z,97634.44
2022-11-23T19:59:38.178Z,97646.81
2022-11-23T20:02:07.431Z,97637.19
2022-11-23T20:04:35.383Z,97646.41
2022-11-23T20:07:03.419Z,97652.66
2022-11-23T20:09:32.139Z,97637.78
2022-11-23T20:12:00.431Z,97642.91
2022-11-23T20:14:28.305Z,97645.94
2022-11-23T20:16:56.256Z,97643.22
2022-11-23T20:19:24.197Z,97642.31
2022-11-23T20:21:53.343Z,97649.16
2022-11-23T20:24:21.266Z,97666.78
2022-11-23T20:26:50.177Z,97663.09
2022-11-23T20:29:18.225Z,97669.97
2022-11-23T20:31:46.262Z,97677.53
2022-11-23T20:34:20.496Z,97678.44
2022-11-23T20:36:51.189Z,97674.63
2022-11-23T20:39:19.120Z,97685.78
2022-11-23T20:41:49.522Z,97691.72
2022-11-23T20:44:17.728Z,97694.94
2022-11-23T20:47:01.093Z,97697.66
2022-11-23T20:49:30.831Z,97707.09
2022-11-23T20:51:59.800Z,97706.00
2022-11-23T20:54:27.757Z,97704.84
2022-11-23T20:56:58.478Z,97701.03
2022-11-23T20:59:26.454Z,97704.06
2022-11-23T21:01:55.263Z,97697.84
2022-11-23T21:04:23.264Z,97700.69
2022-11-23T21:06:52.200Z,97698.63
2022-11-23T21:09:20.136Z,97699.25
2022-11-23T21:12:07.216Z,97701.84
2022-11-23T21:14:35.700Z,97704.84
2022-11-23T21:17:05.185Z,97711.91
2022-11-23T21:19:39.245Z,97716.06
2022-11-23T21:22:10.139Z,97717.66
2022-11-23T21:24:38.348Z,97724.88
2022-11-23T21:27:08.201Z,97729.16
2022-11-23T21:29:37.046Z,97736.06
2022-11-23T21:32:05.572Z,97742.47
2022-11-23T21:34:33.855Z,97745.47
2022-11-23T21:37:02.945Z,97746.31
2022-11-23T21:39:31.226Z,97747.91
2022-11-23T21:41:59.971Z,97752.22
2022-11-23T21:44:28.065Z,97759.09
2022-11-23T21:46:56.404Z,97761.22
2022-11-23T21:49:27.744Z,97749.53
2022-11-23T21:51:56.175Z,97762.78
2022-11-23T21:54:24.129Z,97769.53
2022-11-23T21:56:52.171Z,97768.56
2022-11-23T21:59:20.085Z,97778.81
2022-11-23T22:01:48.201Z,97777.53
2022-11-23T22:04:17.086Z,97797.53
2022-11-23T22:06:45.394Z,97800.56
2022-11-23T22:09:13.941Z,97799.47
2022-11-23T22:11:43.468Z,97799.75
2022-11-23T22:14:14.860Z,97808.56
2022-11-23T22:16:45.520Z,97810.66
2022-11-23T22:19:15.408Z,97813.22
2022-11-23T22:21:45.219Z,97813.06
2022-11-23T22:24:15.351Z,97811.78
2022-11-23T22:26:43.757Z,97827.16
2022-11-23T22:29:12.481Z,97829.25
2022-11-23T22:31:41.380Z,97828.44
2022-11-23T22:34:11.950Z,97830.50
2022-11-23T22:36:40.515Z,97838.69
2022-11-23T22:39:08.893Z,97834.75
2022-11-23T22:41:38.099Z,97832.19
2022-11-23T22:44:09.281Z,97840.09
2022-11-23T22:46:38.211Z,97839.94
2022-11-23T22:49:06.416Z,97843.00
2022-11-23T22:51:34.963Z,97851.97
2022-11-23T22:54:03.000Z,97866.53
2022-11-23T22:56:31.537Z,97867.81
2022-11-23T22:58:59.583Z,97871.81
2022-11-23T23:01:29.955Z,97879.94
2022-11-23T23:04:02.241Z,97869.38
2022-11-23T23:06:34.505Z,97887.38
2022-11-23T23:09:08.240Z,97890.81
2022-11-23T23:11:37.630Z,97895.00
2022-11-23T23:14:06.247Z,97892.13
2022-11-23T23:16:35.230Z,97898.16
2022-11-23T23:19:03.569Z,97896.72
2022-11-23T23:21:31.634Z,97898.72
2022-11-23T23:24:02.949Z,97901.00
2022-11-23T23:26:30.884Z,97896.75
2022-11-23T23:29:00.411Z,97909.25
2022-11-23T23:31:29.873Z,97900.91
2022-11-23T23:33:59.494Z,97901.06
2022-11-23T23:36:27.403Z,97915.19
2022-11-23T23:38:55.434Z,97912.75
2022-11-23T23:41:25.138Z,97912.78
2022-11-23T23:43:53.103Z,97914.03
2022-11-23T23:46:22.005Z,97913.97
2022-11-23T23:48:50.009Z,97921.50
2022-11-23T23:51:21.092Z,97912.31
2022-11-23T23:53:52.997Z,97915.34
2022-11-23T23:56:23.818Z,97915.47
2022-11-23T23:58:52.545Z,97923.94
